createdAt,value
2023-07-06T00:01:13.069Z,17.27
2023-07-06T00:03:40.204Z,17.33
2023-07-06T00:06:09.194Z,17.32
2023-07-06T00:08:36.380Z,17.34
2023-07-06T00:11:04.989Z,17.32
2023-07-06T00:13:33.548Z,17.19
2023-07-06T00:16:00.961Z,17.34
2023-07-06T00:18:28.746Z,17.23
2023-07-06T00:20:56.349Z,17.25
2023-07-06T00:23:23.352Z,17.29
2023-07-06T00:25:51.325Z,17.18
2023-07-06T00:28:18.496Z,17.24
2023-07-06T00:30:46.967Z,17.18
2023-07-06T00:33:16.430Z,17.32
2023-07-06T00:35:43.832Z,17.16
2023-07-06T00:38:13.750Z,17.24
2023-07-06T00:40:45.153Z,17.26
2023-07-06T00:43:13.957Z,17.39
2023-07-06T00:45:41.202Z,17.54
2023-07-06T00:48:21.115Z,17.59
2023-07-06T00:50:56.205Z,17.70
2023-07-06T00:53:28.716Z,17.81
2023-07-06T00:55:58.210Z,17.73
2023-07-06T00:58:32.395Z,17.76
2023-07-06T01:01:05.108Z,17.68
2023-07-06T01:03:38.846Z,17.48
2023-07-06T01:06:07.297Z,17.57
2023-07-06T01:08:34.907Z,17.47
2023-07-06T01:11:03.176Z,17.54
2023-07-06T01:13:30.232Z,17.62
2023-07-06T01:16:08.033Z,17.76
2023-07-06T01:18:48.845Z,17.66
2023-07-06T01:21:25.646Z,17.70
2023-07-06T01:24:33.946Z,17.81
2023-07-06T01:27:31.652Z,17.80
2023-07-06T01:30:29.201Z,17.77
2023-07-06T01:33:04.622Z,17.84
2023-07-06T01:35:43.361Z,17.84
2023-07-06T01:38:12.126Z,17.93
2023-07-06T01:40:39.081Z,17.96
2023-07-06T01:43:06.008Z,18.04
2023-07-06T01:45:33.404Z,18.08
2023-07-06T01:48:08.185Z,18.12
2023-07-06T01:50:47.455Z,18.16
2023-07-06T01:53:22.251Z,18.00
2023-07-06T01:55:58.380Z,17.97
2023-07-06T01:58:36.003Z,17.97
2023-07-06T02:01:39.617Z,18.07
2023-07-06T02:04:21.946Z,18.12
2023-07-06T02:07:04.474Z,18.12
2023-07-06T02:09:43.622Z,18.17
2023-07-06T02:12:11.303Z,18.15
2023-07-06T02:14:38.417Z,18.13
2023-07-06T02:17:05.671Z,18.10
2023-07-06T02:19:34.031Z,18.08
2023-07-06T02:22:01.837Z,18.06
2023-07-06T02:24:28.757Z,18.04
2023-07-06T02:26:55.789Z,18.00
2023-07-06T02:29:22.696Z,17.96
2023-07-06T02:31:50.248Z,17.94
2023-07-06T02:34:18.054Z,17.93
2023-07-06T02:36:46.392Z,17.93
2023-07-06T02:39:13.391Z,17.61
2023-07-06T02:41:40.510Z,16.96
2023-07-06T02:44:07.544Z,16.75
2023-07-06T02:46:34.638Z,16.56
2023-07-06T02:49:01.758Z,16.33
2023-07-06T02:51:28.679Z,16.37
2023-07-06T02:53:57.028Z,16.42
2023-07-06T02:56:24.340Z,16.45
2023-07-06T02:58:51.277Z,16.44
2023-07-06T03:01:18.431Z,16.63
2023-07-06T03:03:45.568Z,16.77
2023-07-06T03:06:12.634Z,16.87
2023-07-06T03:08:39.719Z,16.93
2023-07-06T03:11:08.525Z,17.00
2023-07-06T03:17:45.508Z,16.53
2023-07-06T03:20:12.785Z,16.16
2023-07-06T03:22:40.263Z,16.10
2023-07-06T03:25:08.570Z,16.07
2023-07-06T03:27:37.128Z,15.99
2023-07-06T03:30:04.973Z,16.07
2023-07-06T03:32:32.066Z,16.22
2023-07-06T03:34:59.223Z,16.33
2023-07-06T03:37:26.353Z,16.04
2023-07-06T03:39:53.814Z,16.16
2023-07-06T03:42:20.876Z,16.31
2023-07-06T03:44:49.306Z,16.35
2023-07-06T03:47:16.383Z,16.29
2023-07-06T03:49:43.415Z,16.34
2023-07-06T03:52:10.406Z,16.34
2023-07-06T03:54:37.426Z,16.39
2023-07-06T03:57:05.573Z,16.55
2023-07-06T03:59:32.618Z,16.55
2023-07-06T04:02:00.959Z,16.78
2023-07-06T04:04:27.858Z,16.98
2023-07-06T04:06:55.243Z,17.07
2023-07-06T04:09:23.926Z,17.07
2023-07-06T04:11:51.129Z,17.25
2023-07-06T04:14:18.155Z,17.43
2023-07-06T04:16:45.241Z,17.54
2023-07-06T04:19:14.013Z,17.84
2023-07-06T04:21:41.166Z,18.06
2023-07-06T04:24:08.318Z,18.41
2023-07-06T04:26:35.344Z,18.63
2023-07-06T04:29:02.346Z,19.09
2023-07-06T04:31:29.387Z,19.69
2023-07-06T04:33:56.361Z,20.23
2023-07-06T04:36:24.843Z,20.63
2023-07-06T04:38:51.826Z,21.03
2023-07-06T04:41:18.806Z,21.06
2023-07-06T04:43:45.816Z,21.55
2023-07-06T04:46:13.289Z,21.91
2023-07-06T04:48:40.387Z,22.22
2023-07-06T04:51:07.336Z,22.15
2023-07-06T04:53:35.616Z,22.01
2023-07-06T04:56:02.699Z,20.59
2023-07-06T04:58:29.698Z,21.13
2023-07-06T05:00:57.390Z,21.38
2023-07-06T05:03:24.643Z,22.03
2023-07-06T05:05:51.658Z,21.99
2023-07-06T05:08:20.032Z,22.72
2023-07-06T05:10:52.705Z,23.38
2023-07-06T05:13:21.380Z,23.06
2023-07-06T05:15:49.448Z,23.05
2023-07-06T05:18:16.800Z,22.44
2023-07-06T05:20:44.913Z,22.45
2023-07-06T05:23:12.542Z,22.06
2023-07-06T05:25:39.905Z,22.12
2023-07-06T05:28:08.282Z,21.91
2023-07-06T05:30:35.333Z,21.86
2023-07-06T05:33:02.629Z,22.79
2023-07-06T05:35:29.786Z,23.86
2023-07-06T05:37:57.099Z,24.19
2023-07-06T05:40:24.036Z,23.90
2023-07-06T05:42:51.078Z,23.59
2023-07-06T05:45:19.427Z,23.86
2023-07-06T05:47:47.549Z,24.43
2023-07-06T05:50:15.005Z,24.33
2023-07-06T05:52:42.086Z,25.12
2023-07-06T05:55:10.809Z,25.84
2023-07-06T05:57:37.694Z,26.48
2023-07-06T06:00:06.573Z,26.79
2023-07-06T06:02:35.630Z,27.24
2023-07-06T06:05:02.751Z,26.50
2023-07-06T06:07:29.874Z,26.25
2023-07-06T06:09:56.735Z,26.59
2023-07-06T06:12:23.626Z,26.57
2023-07-06T06:14:52.093Z,27.63
2023-07-06T06:17:20.831Z,28.28
2023-07-06T06:19:49.245Z,29.02
2023-07-06T06:22:18.203Z,28.89
2023-07-06T06:24:45.503Z,28.99
2023-07-06T06:27:14.489Z,29.43
2023-07-06T06:29:42.029Z,28.37
2023-07-06T06:32:11.257Z,24.71
2023-07-06T06:34:39.473Z,24.78
2023-07-06T06:37:09.088Z,24.08
2023-07-06T06:39:37.077Z,25.53
2023-07-06T06:42:05.147Z,26.74
2023-07-06T06:44:33.425Z,27.59
2023-07-06T06:47:03.453Z,28.18
2023-07-06T06:49:33.292Z,28.88
2023-07-06T06:52:00.920Z,29.53
2023-07-06T06:54:29.413Z,30.06
2023-07-06T06:56:56.353Z,30.16
2023-07-06T06:59:24.000Z,30.27
2023-07-06T07:01:50.963Z,30.44
2023-07-06T07:04:18.215Z,30.34
2023-07-06T07:06:45.293Z,29.87
2023-07-06T07:09:12.218Z,29.29
2023-07-06T07:11:40.580Z,29.55
2023-07-06T07:14:09.710Z,29.75
2023-07-06T07:16:57.069Z,29.70
2023-07-06T07:19:24.487Z,29.26
2023-07-06T07:21:51.519Z,28.78
2023-07-06T07:24:18.693Z,28.28
2023-07-06T07:26:47.526Z,27.89
2023-07-06T07:29:14.591Z,27.60
2023-07-06T07:31:42.597Z,27.50
2023-07-06T07:34:12.799Z,27.31
2023-07-06T07:36:39.977Z,27.25
2023-07-06T07:39:06.895Z,27.60
2023-07-06T07:41:33.841Z,27.95
2023-07-06T07:44:02.207Z,27.60
2023-07-06T07:46:30.068Z,27.61
2023-07-06T07:48:58.436Z,27.88
2023-07-06T07:51:27.835Z,27.89
2023-07-06T07:53:56.828Z,27.70
2023-07-06T07:56:26.210Z,26.99
2023-07-06T07:58:53.205Z,26.11
2023-07-06T08:01:24.466Z,25.54
2023-07-06T08:03:53.046Z,24.84
2023-07-06T08:06:23.176Z,25.32
2023-07-06T08:08:50.208Z,25.91
2023-07-06T08:11:20.898Z,25.90
2023-07-06T08:13:48.403Z,26.27
2023-07-06T08:16:15.380Z,26.51
2023-07-06T08:18:44.578Z,26.61
2023-07-06T08:21:42.047Z,25.38
2023-07-06T08:23:58.944Z,25.70
2023-07-06T08:26:26.030Z,25.80
2023-07-06T08:28:54.544Z,23.99
2023-07-06T08:31:23.512Z,24.32
2023-07-06T08:33:51.864Z,24.50
2023-07-06T08:36:22.436Z,23.99
2023-07-06T08:39:19.989Z,23.75
2023-07-06T08:41:49.362Z,23.81
2023-07-06T08:44:20.262Z,24.59
2023-07-06T08:46:49.550Z,25.27
2023-07-06T08:49:30.370Z,25.66
2023-07-06T08:52:02.097Z,25.91
2023-07-06T08:54:29.948Z,25.73
2023-07-06T08:56:57.576Z,25.08
2023-07-06T08:59:38.933Z,25.71
2023-07-06T09:02:18.248Z,24.77
2023-07-06T09:04:51.184Z,25.20
2023-07-06T09:07:21.492Z,25.48
2023-07-06T09:09:49.873Z,26.02
2023-07-06T09:12:27.192Z,26.02
2023-07-06T09:14:55.146Z,26.43
2023-07-06T09:17:22.807Z,26.78
2023-07-06T09:19:52.118Z,26.76
2023-07-06T09:22:20.230Z,26.34
2023-07-06T09:24:48.174Z,25.52
2023-07-06T09:27:19.562Z,25.85
2023-07-06T09:29:59.669Z,26.21
2023-07-06T09:32:26.777Z,26.57
2023-07-06T09:35:00.856Z,26.93
2023-07-06T09:37:27.820Z,27.19
2023-07-06T09:40:01.321Z,27.42
2023-07-06T09:42:28.912Z,27.50
2023-07-06T09:44:57.030Z,27.48
2023-07-06T09:47:24.343Z,27.28
2023-07-06T09:49:59.669Z,27.05
2023-07-06T09:52:29.301Z,27.31
2023-07-06T09:55:16.151Z,27.59
2023-07-06T09:57:43.682Z,27.55
2023-07-06T10:00:18.125Z,27.36
2023-07-06T10:03:01.074Z,27.10
2023-07-06T10:05:44.351Z,25.59
2023-07-06T10:08:19.800Z,25.85
2023-07-06T10:11:06.751Z,26.48
2023-07-06T10:13:44.294Z,27.01
2023-07-06T10:16:25.293Z,27.77
2023-07-06T10:19:03.172Z,28.25
2023-07-06T10:21:44.376Z,28.44
2023-07-06T10:24:30.962Z,28.51
2023-07-06T10:27:04.453Z,28.47
2023-07-06T10:29:40.512Z,28.40
2023-07-06T10:32:14.258Z,26.77
2023-07-06T10:34:51.527Z,27.57
2023-07-06T10:37:22.389Z,28.23
2023-07-06T10:40:03.528Z,27.06
2023-07-06T10:42:33.227Z,27.54
2023-07-06T10:45:03.365Z,26.06
2023-07-06T10:47:40.770Z,25.64
2023-07-06T10:50:24.709Z,25.43
2023-07-06T10:53:00.920Z,25.89
2023-07-06T10:55:33.990Z,26.78
2023-07-06T10:58:25.804Z,27.78
2023-07-06T11:00:55.394Z,28.55
2023-07-06T11:03:27.005Z,29.13
2023-07-06T11:05:59.307Z,29.39
2023-07-06T11:09:13.828Z,29.87
2023-07-06T11:11:44.185Z,30.03
2023-07-06T11:14:26.818Z,29.97
2023-07-06T11:17:00.526Z,29.46
2023-07-06T11:19:34.243Z,29.94
2023-07-06T11:22:08.408Z,29.64
2023-07-06T11:24:44.924Z,29.32
2023-07-06T11:27:25.965Z,29.13
2023-07-06T11:30:05.482Z,28.85
2023-07-06T11:32:43.899Z,28.81
2023-07-06T11:35:36.943Z,29.48
2023-07-06T11:38:24.440Z,28.48
2023-07-06T11:41:14.088Z,28.99
2023-07-06T11:44:04.847Z,29.57
2023-07-06T11:46:51.834Z,30.38
2023-07-06T11:49:43.513Z,31.18
2023-07-06T11:52:15.865Z,31.10
2023-07-06T11:54:50.493Z,30.19
2023-07-06T11:57:26.885Z,28.68
2023-07-06T12:00:00.777Z,28.63
2023-07-06T12:02:31.558Z,28.04
2023-07-06T12:04:58.770Z,27.68
2023-07-06T12:07:29.779Z,27.60
2023-07-06T12:10:02.341Z,27.05
2023-07-06T12:12:31.970Z,27.91
2023-07-06T12:15:01.216Z,28.21
2023-07-06T12:17:32.265Z,29.21
2023-07-06T12:20:00.021Z,29.08
2023-07-06T12:22:27.757Z,29.35
2023-07-06T12:24:55.864Z,29.74
2023-07-06T12:27:23.119Z,30.22
2023-07-06T12:30:03.692Z,30.60
2023-07-06T12:32:31.420Z,30.72
2023-07-06T12:34:58.635Z,30.59
2023-07-06T12:37:25.521Z,30.35
2023-07-06T12:39:52.596Z,29.88
2023-07-06T12:42:45.275Z,29.48
2023-07-06T12:45:18.482Z,27.82
2023-07-06T12:47:46.510Z,28.19
2023-07-06T12:50:17.039Z,28.01
2023-07-06T12:52:44.872Z,28.08
2023-07-06T12:55:16.476Z,28.16
2023-07-06T12:57:43.952Z,28.22
2023-07-06T13:00:23.185Z,28.60
2023-07-06T13:02:58.551Z,28.84
2023-07-06T13:05:29.313Z,28.94
2023-07-06T13:07:57.048Z,28.94
2023-07-06T13:10:27.704Z,28.51
2023-07-06T13:12:55.076Z,28.61
2023-07-06T13:15:26.677Z,28.62
2023-07-06T13:17:59.966Z,28.39
2023-07-06T13:20:27.271Z,28.20
2023-07-06T13:22:54.158Z,28.02
2023-07-06T13:25:24.408Z,27.87
2023-07-06T13:27:52.523Z,27.90
2023-07-06T13:30:19.960Z,27.69
2023-07-06T13:32:49.005Z,26.40
2023-07-06T13:35:16.203Z,25.95
2023-07-06T13:37:43.770Z,25.99
2023-07-06T13:40:15.641Z,26.47
2023-07-06T13:42:47.743Z,26.68
2023-07-06T13:45:18.214Z,27.06
2023-07-06T13:47:46.108Z,27.10
2023-07-06T13:50:14.349Z,27.26
2023-07-06T13:52:41.438Z,27.16
2023-07-06T13:55:22.484Z,26.42
2023-07-06T13:57:49.488Z,26.41
2023-07-06T14:00:17.444Z,26.33
2023-07-06T14:02:44.549Z,26.68
2023-07-06T14:05:16.325Z,27.04
2023-07-06T14:07:43.703Z,27.36
2023-07-06T14:10:11.241Z,27.30
2023-07-06T14:12:38.350Z,27.38
2023-07-06T14:15:07.225Z,27.40
2023-07-06T14:17:34.125Z,27.49
2023-07-06T14:20:03.624Z,27.37
2023-07-06T14:22:32.421Z,27.47
2023-07-06T14:25:01.708Z,27.48
2023-07-06T14:27:28.885Z,27.63
2023-07-06T14:29:56.123Z,27.77
2023-07-06T14:32:23.149Z,27.78
2023-07-06T14:34:50.101Z,27.82
2023-07-06T14:37:17.086Z,27.59
2023-07-06T14:39:46.087Z,27.65
2023-07-06T14:42:12.989Z,27.82
2023-07-06T14:44:39.938Z,27.71
2023-07-06T14:47:07.068Z,27.69
2023-07-06T14:49:34.090Z,27.80
2023-07-06T14:52:01.076Z,27.86
2023-07-06T14:54:27.923Z,27.97
2023-07-06T14:56:56.145Z,28.05
2023-07-06T14:59:23.051Z,28.07
2023-07-06T15:01:50.201Z,28.05
2023-07-06T15:04:17.287Z,27.96
2023-07-06T15:06:44.270Z,27.84
2023-07-06T15:09:11.375Z,27.88
2023-07-06T15:11:38.288Z,27.77
2023-07-06T15:14:06.659Z,27.62
2023-07-06T15:16:33.663Z,27.66
2023-07-06T15:19:00.754Z,27.47
2023-07-06T15:21:27.855Z,27.51
2023-07-06T15:23:54.749Z,27.36
2023-07-06T15:26:21.985Z,26.92
2023-07-06T15:28:48.890Z,26.90
2023-07-06T15:31:17.263Z,26.88
2023-07-06T15:33:44.150Z,26.67
2023-07-06T15:36:11.040Z,26.19
2023-07-06T15:38:37.912Z,26.20
2023-07-06T15:41:05.350Z,26.44
2023-07-06T15:43:32.278Z,26.53
2023-07-06T15:45:59.421Z,26.75
2023-07-06T15:48:28.160Z,26.72
2023-07-06T15:50:55.115Z,26.70
2023-07-06T15:53:22.401Z,26.60
2023-07-06T15:55:49.361Z,26.73
2023-07-06T15:58:16.246Z,26.78
2023-07-06T16:00:43.482Z,26.77
2023-07-06T16:03:10.719Z,26.40
2023-07-06T16:05:44.358Z,25.98
2023-07-06T16:08:11.588Z,25.99
2023-07-06T16:10:39.993Z,25.83
2023-07-06T16:13:06.902Z,25.73
2023-07-06T16:15:34.539Z,25.65
2023-07-06T16:18:01.500Z,25.74
2023-07-06T16:23:00.949Z,25.59
2023-07-06T16:25:29.480Z,25.51
2023-07-06T16:27:58.236Z,25.46
2023-07-06T16:30:26.261Z,25.38
2023-07-06T16:32:54.018Z,25.57
2023-07-06T16:35:21.781Z,25.88
2023-07-06T16:37:48.731Z,26.06
2023-07-06T16:40:17.473Z,26.19
2023-07-06T16:42:44.468Z,26.34
2023-07-06T16:45:11.403Z,26.33
2023-07-06T16:47:38.374Z,26.43
2023-07-06T16:50:06.965Z,26.54
2023-07-06T16:52:33.961Z,26.60
2023-07-06T16:55:01.152Z,26.35
2023-07-06T16:57:29.373Z,25.86
2023-07-06T16:59:56.362Z,26.13
2023-07-06T17:02:23.427Z,26.20
2023-07-06T17:04:50.524Z,26.22
2023-07-06T17:07:17.906Z,26.20
2023-07-06T17:09:44.847Z,26.15
2023-07-06T17:12:11.723Z,26.10
2023-07-06T17:14:40.057Z,26.06
2023-07-06T17:17:07.432Z,26.04
2023-07-06T17:19:34.322Z,26.05
2023-07-06T17:22:01.233Z,26.07
2023-07-06T17:24:28.199Z,26.09
2023-07-06T17:26:55.470Z,26.08
2023-07-06T17:29:22.831Z,26.12
2023-07-06T17:31:51.236Z,26.08
2023-07-06T17:34:18.191Z,26.12
2023-07-06T17:36:45.062Z,26.09
2023-07-06T17:39:12.034Z,25.96
2023-07-06T17:41:39.137Z,25.99
2023-07-06T17:44:10.286Z,26.02
2023-07-06T17:46:37.399Z,26.04
2023-07-06T17:49:05.804Z,25.80
2023-07-06T17:51:33.307Z,25.76
2023-07-06T17:54:00.238Z,25.76
2023-07-06T17:56:27.477Z,25.77
2023-07-06T17:58:54.421Z,25.77
2023-07-06T18:01:21.373Z,25.77
2023-07-06T18:03:48.650Z,25.71
2023-07-06T18:07:08.626Z,25.66
2023-07-06T18:09:35.971Z,25.56
2023-07-06T18:12:03.840Z,25.59
2023-07-06T18:14:31.967Z,25.61
2023-07-06T18:17:00.306Z,25.54
2023-07-06T18:19:29.971Z,25.54
2023-07-06T18:21:57.983Z,25.49
2023-07-06T18:24:26.423Z,25.43
2023-07-06T18:26:54.218Z,25.38
2023-07-06T18:29:21.275Z,25.28
2023-07-06T18:31:48.959Z,25.27
2023-07-06T18:34:17.600Z,25.27
2023-07-06T18:36:44.761Z,25.12
2023-07-06T18:39:12.101Z,25.09
2023-07-06T18:41:40.604Z,24.93
2023-07-06T18:44:09.195Z,24.91
2023-07-06T18:46:36.122Z,24.87
2023-07-06T18:49:03.704Z,24.86
2023-07-06T18:51:30.639Z,24.80
2023-07-06T18:53:57.965Z,24.76
2023-07-06T18:56:25.071Z,24.66
2023-07-06T18:58:53.536Z,24.61
2023-07-06T19:01:21.056Z,24.58
2023-07-06T19:03:48.068Z,24.55
2023-07-06T19:06:18.823Z,24.48
2023-07-06T19:08:47.836Z,24.42
2023-07-06T19:11:15.611Z,24.38
2023-07-06T19:13:46.549Z,24.35
2023-07-06T19:16:16.369Z,24.31
2023-07-06T19:18:44.418Z,24.20
2023-07-06T19:21:11.673Z,24.13
2023-07-06T19:23:38.541Z,24.06
2023-07-06T19:26:08.936Z,23.99
2023-07-06T19:28:36.539Z,23.97
2023-07-06T19:31:03.890Z,23.91
2023-07-06T19:33:32.336Z,23.82
2023-07-06T19:35:59.599Z,23.66
2023-07-06T19:38:27.381Z,23.58
2023-07-06T19:40:56.485Z,23.52
2023-07-06T19:43:24.464Z,23.48
2023-07-06T19:45:51.792Z,23.42
2023-07-06T19:48:20.108Z,23.33
2023-07-06T19:50:49.156Z,23.18
2023-07-06T19:53:16.296Z,23.10
2023-07-06T19:55:46.471Z,23.05
2023-07-06T19:58:13.790Z,23.01
2023-07-06T20:00:41.069Z,22.97
2023-07-06T20:03:08.279Z,22.94
2023-07-06T20:05:36.140Z,22.94
2023-07-06T20:08:05.498Z,22.93
2023-07-06T20:10:33.198Z,22.86
2023-07-06T20:13:00.546Z,22.78
2023-07-06T20:15:27.783Z,22.70
2023-07-06T20:17:54.860Z,22.63
2023-07-06T20:20:22.405Z,22.59
2023-07-06T20:22:49.382Z,22.58
2023-07-06T20:25:18.668Z,22.53
2023-07-06T20:27:45.700Z,22.48
2023-07-06T20:30:12.916Z,22.38
2023-07-06T20:32:39.943Z,22.01
2023-07-06T20:35:08.032Z,21.52
2023-07-06T20:37:35.865Z,21.46
2023-07-06T20:40:04.200Z,21.45
2023-07-06T20:42:32.488Z,21.34
2023-07-06T20:44:59.385Z,21.17
2023-07-06T20:47:26.640Z,20.99
2023-07-06T20:49:53.632Z,20.62
2023-07-06T20:52:25.243Z,20.33
2023-07-06T20:54:52.368Z,20.15
2023-07-06T20:57:19.542Z,20.07
2023-07-06T20:59:48.291Z,20.13
2023-07-06T21:02:16.667Z,20.17
2023-07-06T21:04:44.020Z,20.14
2023-07-06T21:07:11.130Z,20.16
2023-07-06T21:09:38.390Z,20.18
2023-07-06T21:12:07.158Z,20.15
2023-07-06T21:14:34.409Z,20.10
2023-07-06T21:17:03.202Z,20.15
2023-07-06T21:19:30.248Z,20.20
2023-07-06T21:21:57.386Z,20.20
2023-07-06T21:24:24.351Z,20.17
2023-07-06T21:26:52.267Z,20.11
2023-07-06T21:29:19.397Z,20.02
2023-07-06T21:31:46.755Z,19.91
2023-07-06T21:34:16.803Z,19.67
2023-07-06T21:36:44.549Z,19.65
2023-07-06T21:39:13.107Z,19.58
2023-07-06T21:41:40.478Z,19.51
2023-07-06T21:44:07.779Z,19.45
2023-07-06T21:46:35.006Z,19.33
2023-07-06T21:49:02.299Z,19.11
2023-07-06T21:51:30.986Z,18.98
2023-07-06T21:53:58.179Z,19.00
2023-07-06T21:56:27.229Z,19.04
2023-07-06T21:58:54.435Z,18.97
2023-07-06T22:01:22.172Z,18.93
2023-07-06T22:03:49.353Z,18.91
2023-07-06T22:06:19.985Z,18.93
2023-07-06T22:08:49.550Z,18.86
2023-07-06T22:11:21.064Z,18.87
2023-07-06T22:13:48.265Z,18.97
2023-07-06T22:16:16.832Z,19.00
2023-07-06T22:18:44.153Z,18.94
2023-07-06T22:21:12.619Z,18.84
2023-07-06T22:23:39.803Z,18.81
2023-07-06T22:26:09.294Z,18.83
2023-07-06T22:28:37.454Z,18.79
2023-07-06T22:31:07.140Z,18.82
2023-07-06T22:33:37.106Z,18.82
2023-07-06T22:36:05.292Z,18.77
2023-07-06T22:48:39.307Z,18.77
2023-07-06T22:58:37.467Z,18.09
2023-07-06T22:58:59.329Z,18.04
2023-07-06T23:01:48.458Z,18.01
2023-07-06T23:04:37.236Z,18.06
2023-07-06T23:07:05.054Z,18.05
2023-07-06T23:09:32.467Z,18.07
2023-07-06T23:12:00.602Z,18.15
2023-07-06T23:14:28.238Z,18.16
2023-07-06T23:16:55.773Z,18.07
2023-07-06T23:19:22.957Z,17.98
2023-07-06T23:21:51.915Z,17.98
2023-07-06T23:24:19.172Z,18.05
2023-07-06T23:26:46.480Z,17.94
2023-07-06T23:29:13.764Z,17.74
2023-07-06T23:31:40.817Z,17.71
2023-07-06T23:34:07.910Z,17.60
2023-07-06T23:36:36.022Z,17.60
2023-07-06T23:39:04.629Z,17.40
2023-07-06T23:41:31.828Z,17.41
2023-07-06T23:43:59.027Z,17.46
2023-07-06T23:46:26.228Z,17.51
2023-07-06T23:48:53.997Z,17.50
2023-07-06T23:51:24.512Z,17.47
2023-07-06T23:53:51.681Z,17.52
2023-07-06T23:56:20.023Z,17.61
2023-07-06T23:58:46.881Z,17.58
